Terminal Aerodrome Forecast
Issued by NWS Sterling, VA

Home | Current Version | Previous Version | Text Only | Print | Product List | Glossary On
Versions: 1 2 3 4 5 6 7 8 9 10 11 12 13 14 15 16
000
FTUS41 KLWX 300800 AAC
TAFCHO
TAF AMD
KCHO 300846Z 3009/3106 00000KT P6SM BKN015
     FM301000 00000KT 5SM BR BKN025
     FM301300 00000KT P6SM BKN050
     FM301800 16005KT P6SM SCT090
     FM310300 VRB03KT 5SM BR SCT250=

USA.gov is the U.S. government's official web portal to all federal, state and local government web resources and services.